sensor_id;sensor_type;location;lat;lon;timestamp;P1;durP1;ratioP1;P2;durP2;ratioP2
2486;SDS011;1254;49.144;8.212;2022-09-30T00:02:17;7.95;;;7.20;;
2486;SDS011;1254;49.144;8.212;2022-09-30T00:04:45;8.45;;;6.20;;
2486;SDS011;1254;49.144;8.212;2022-09-30T00:07:13;9.07;;;7.80;;
2486;SDS011;1254;49.144;8.212;2022-09-30T00:09:43;8.38;;;7.05;;
2486;SDS011;1254;49.144;8.212;2022-09-30T00:12:13;7.35;;;6.47;;
2486;SDS011;1254;49.144;8.212;2022-09-30T00:14:41;7.00;;;6.45;;
2486;SDS011;1254;49.144;8.212;2022-09-30T00:17:09;7.90;;;7.20;;
2486;SDS011;1254;49.144;8.212;2022-09-30T00:19:37;7.35;;;5.80;;
2486;SDS011;1254;49.144;8.212;2022-09-30T00:22:05;9.27;;;5.50;;
2486;SDS011;1254;49.144;8.212;2022-09-30T00:24:34;6.35;;;5.75;;
2486;SDS011;1254;49.144;8.212;2022-09-30T00:27:03;6.80;;;6.10;;
2486;SDS011;1254;49.144;8.212;2022-09-30T00:29:31;7.30;;;6.50;;
2486;SDS011;1254;49.144;8.212;2022-09-30T00:31:59;7.20;;;6.47;;
2486;SDS011;1254;49.144;8.212;2022-09-30T00:34:28;9.00;;;7.00;;
2486;SDS011;1254;49.144;8.212;2022-09-30T00:36:55;7.10;;;6.40;;
2486;SDS011;1254;49.144;8.212;2022-09-30T00:39:25;8.05;;;6.90;;
2486;SDS011;1254;49.144;8.212;2022-09-30T00:41:55;11.60;;;6.32;;
2486;SDS011;1254;49.144;8.212;2022-09-30T00:44:45;7.35;;;6.63;;
2486;SDS011;1254;49.144;8.212;2022-09-30T00:47:29;5.93;;;5.35;;
2486;SDS011;1254;49.144;8.212;2022-09-30T00:50:09;9.95;;;7.03;;
2486;SDS011;1254;49.144;8.212;2022-09-30T00:52:42;7.38;;;6.68;;
2486;SDS011;1254;49.144;8.212;2022-09-30T00:55:17;6.88;;;6.15;;
2486;SDS011;1254;49.144;8.212;2022-09-30T00:57:53;6.35;;;5.75;;
2486;SDS011;1254;49.144;8.212;2022-09-30T01:00:24;8.27;;;5.80;;
2486;SDS011;1254;49.144;8.212;2022-09-30T01:02:52;6.38;;;5.78;;
2486;SDS011;1254;49.144;8.212;2022-09-30T01:05:21;8.98;;;5.65;;
2486;SDS011;1254;49.144;8.212;2022-09-30T01:07:52;8.20;;;5.32;;
2486;SDS011;1254;49.144;8.212;2022-09-30T01:10:22;6.20;;;5.57;;
2486;SDS011;1254;49.144;8.212;2022-09-30T01:12:50;6.00;;;5.20;;
2486;SDS011;1254;49.144;8.212;2022-09-30T01:15:19;6.03;;;5.40;;
2486;SDS011;1254;49.144;8.212;2022-09-30T01:17:58;5.30;;;4.90;;
2486;SDS011;1254;49.144;8.212;2022-09-30T01:20:47;6.53;;;5.90;;
2486;SDS011;1254;49.144;8.212;2022-09-30T01:23:45;6.28;;;5.68;;
2486;SDS011;1254;49.144;8.212;2022-09-30T01:26:41;5.18;;;4.78;;
2486;SDS011;1254;49.144;8.212;2022-09-30T01:32:36;5.32;;;4.93;;
2486;SDS011;1254;49.144;8.212;2022-09-30T01:35:27;7.70;;;5.20;;
2486;SDS011;1254;49.144;8.212;2022-09-30T01:38:07;5.53;;;5.07;;
2486;SDS011;1254;49.144;8.212;2022-09-30T01:40:41;5.20;;;4.80;;
2486;SDS011;1254;49.144;8.212;2022-09-30T01:43:16;5.35;;;4.88;;
2486;SDS011;1254;49.144;8.212;2022-09-30T01:45:55;5.22;;;4.75;;
2486;SDS011;1254;49.144;8.212;2022-09-30T01:48:28;6.75;;;4.75;;
2486;SDS011;1254;49.144;8.212;2022-09-30T01:51:06;4.78;;;4.28;;
2486;SDS011;1254;49.144;8.212;2022-09-30T01:53:38;5.30;;;4.88;;
2486;SDS011;1254;49.144;8.212;2022-09-30T01:56:10;4.53;;;4.10;;
2486;SDS011;1254;49.144;8.212;2022-09-30T01:58:45;5.32;;;3.78;;
2486;SDS011;1254;49.144;8.212;2022-09-30T02:01:21;3.67;;;3.35;;
2486;SDS011;1254;49.144;8.212;2022-09-30T02:03:55;4.30;;;3.55;;
2486;SDS011;1254;49.144;8.212;2022-09-30T02:06:26;4.15;;;3.78;;
2486;SDS011;1254;49.144;8.212;2022-09-30T02:09:01;3.55;;;3.25;;
2486;SDS011;1254;49.144;8.212;2022-09-30T02:11:32;3.50;;;3.30;;
2486;SDS011;1254;49.144;8.212;2022-09-30T02:14:03;3.85;;;3.55;;
2486;SDS011;1254;49.144;8.212;2022-09-30T02:16:36;4.30;;;4.00;;
2486;SDS011;1254;49.144;8.212;2022-09-30T02:19:09;4.65;;;3.90;;
2486;SDS011;1254;49.144;8.212;2022-09-30T02:21:44;7.18;;;4.32;;
2486;SDS011;1254;49.144;8.212;2022-09-30T02:24:17;5.25;;;4.75;;
2486;SDS011;1254;49.144;8.212;2022-09-30T02:26:50;4.10;;;3.80;;
2486;SDS011;1254;49.144;8.212;2022-09-30T02:29:24;4.43;;;4.05;;
2486;SDS011;1254;49.144;8.212;2022-09-30T02:31:58;7.90;;;4.65;;
2486;SDS011;1254;49.144;8.212;2022-09-30T02:34:33;5.00;;;4.50;;
2486;SDS011;1254;49.144;8.212;2022-09-30T02:37:04;4.55;;;4.15;;
2486;SDS011;1254;49.144;8.212;2022-09-30T02:39:39;4.95;;;4.30;;
2486;SDS011;1254;49.144;8.212;2022-09-30T02:42:11;4.22;;;3.92;;
2486;SDS011;1254;49.144;8.212;2022-09-30T02:44:45;5.05;;;4.65;;
2486;SDS011;1254;49.144;8.212;2022-09-30T02:47:15;5.35;;;4.95;;
2486;SDS011;1254;49.144;8.212;2022-09-30T02:49:57;4.75;;;4.35;;
2486;SDS011;1254;49.144;8.212;2022-09-30T02:52:32;4.82;;;4.10;;
2486;SDS011;1254;49.144;8.212;2022-09-30T02:55:13;7.82;;;4.82;;
2486;SDS011;1254;49.144;8.212;2022-09-30T02:57:50;5.35;;;4.05;;
2486;SDS011;1254;49.144;8.212;2022-09-30T03:00:23;4.88;;;4.47;;
2486;SDS011;1254;49.144;8.212;2022-09-30T03:02:52;7.63;;;4.55;;
2486;SDS011;1254;49.144;8.212;2022-09-30T03:05:25;6.45;;;5.57;;
2486;SDS011;1254;49.144;8.212;2022-09-30T03:07:54;5.80;;;4.60;;
2486;SDS011;1254;49.144;8.212;2022-09-30T03:10:23;5.20;;;4.75;;
2486;SDS011;1254;49.144;8.212;2022-09-30T03:12:59;4.45;;;4.05;;
2486;SDS011;1254;49.144;8.212;2022-09-30T03:15:45;4.70;;;4.30;;
2486;SDS011;1254;49.144;8.212;2022-09-30T03:21:21;6.47;;;4.43;;
2486;SDS011;1254;49.144;8.212;2022-09-30T03:24:10;4.55;;;4.15;;
2486;SDS011;1254;49.144;8.212;2022-09-30T03:27:05;4.63;;;4.22;;
2486;SDS011;1254;49.144;8.212;2022-09-30T03:29:42;4.15;;;3.85;;
2486;SDS011;1254;49.144;8.212;2022-09-30T03:32:20;6.05;;;4.20;;
2486;SDS011;1254;49.144;8.212;2022-09-30T03:35:02;6.63;;;5.35;;
2486;SDS011;1254;49.144;8.212;2022-09-30T03:37:42;4.95;;;4.38;;
2486;SDS011;1254;49.144;8.212;2022-09-30T03:40:22;5.53;;;3.40;;
2486;SDS011;1254;49.144;8.212;2022-09-30T03:42:54;5.03;;;4.60;;
2486;SDS011;1254;49.144;8.212;2022-09-30T03:45:27;6.13;;;4.10;;
2486;SDS011;1254;49.144;8.212;2022-09-30T03:48:00;4.85;;;4.43;;
2486;SDS011;1254;49.144;8.212;2022-09-30T03:50:32;4.10;;;3.80;;
2486;SDS011;1254;49.144;8.212;2022-09-30T03:53:05;4.88;;;4.47;;
2486;SDS011;1254;49.144;8.212;2022-09-30T03:55:44;4.47;;;4.07;;
2486;SDS011;1254;49.144;8.212;2022-09-30T03:58:17;6.70;;;4.47;;
2486;SDS011;1254;49.144;8.212;2022-09-30T04:00:47;4.50;;;4.20;;
2486;SDS011;1254;49.144;8.212;2022-09-30T04:03:18;5.63;;;4.45;;
2486;SDS011;1254;49.144;8.212;2022-09-30T04:05:48;4.50;;;4.18;;
2486;SDS011;1254;49.144;8.212;2022-09-30T04:08:17;3.75;;;3.42;;
2486;SDS011;1254;49.144;8.212;2022-09-30T04:10:46;6.63;;;4.32;;
2486;SDS011;1254;49.144;8.212;2022-09-30T04:13:16;10.77;;;4.18;;
2486;SDS011;1254;49.144;8.212;2022-09-30T04:15:50;3.88;;;3.58;;
2486;SDS011;1254;49.144;8.212;2022-09-30T04:18:20;3.75;;;3.45;;
2486;SDS011;1254;49.144;8.212;2022-09-30T04:20:48;5.70;;;4.00;;
2486;SDS011;1254;49.144;8.212;2022-09-30T04:23:18;5.78;;;5.28;;
2486;SDS011;1254;49.144;8.212;2022-09-30T04:25:50;4.00;;;3.80;;
2486;SDS011;1254;49.144;8.212;2022-09-30T04:28:18;4.35;;;4.05;;
2486;SDS011;1254;49.144;8.212;2022-09-30T04:30:46;6.80;;;4.00;;
2486;SDS011;1254;49.144;8.212;2022-09-30T04:33:14;6.20;;;4.10;;
2486;SDS011;1254;49.144;8.212;2022-09-30T04:35:42;4.70;;;3.65;;
2486;SDS011;1254;49.144;8.212;2022-09-30T04:38:10;3.78;;;3.50;;
2486;SDS011;1254;49.144;8.212;2022-09-30T04:40:40;7.00;;;4.30;;
2486;SDS011;1254;49.144;8.212;2022-09-30T04:43:08;4.00;;;3.70;;
2486;SDS011;1254;49.144;8.212;2022-09-30T04:45:36;7.13;;;5.65;;
2486;SDS011;1254;49.144;8.212;2022-09-30T04:48:04;18.73;;;13.68;;
2486;SDS011;1254;49.144;8.212;2022-09-30T04:50:32;11.40;;;9.13;;
2486;SDS011;1254;49.144;8.212;2022-09-30T04:53:00;10.75;;;9.65;;
2486;SDS011;1254;49.144;8.212;2022-09-30T04:55:29;14.48;;;11.80;;
2486;SDS011;1254;49.144;8.212;2022-09-30T04:57:58;16.02;;;12.40;;
2486;SDS011;1254;49.144;8.212;2022-09-30T05:00:26;11.25;;;8.15;;
2486;SDS011;1254;49.144;8.212;2022-09-30T05:02:54;18.88;;;8.68;;
2486;SDS011;1254;49.144;8.212;2022-09-30T05:05:22;13.27;;;10.10;;
2486;SDS011;1254;49.144;8.212;2022-09-30T05:07:50;9.55;;;6.38;;
2486;SDS011;1254;49.144;8.212;2022-09-30T05:10:18;6.65;;;6.15;;
2486;SDS011;1254;49.144;8.212;2022-09-30T05:12:47;6.97;;;5.78;;
2486;SDS011;1254;49.144;8.212;2022-09-30T05:15:16;5.80;;;5.30;;
2486;SDS011;1254;49.144;8.212;2022-09-30T05:17:45;6.80;;;6.10;;
2486;SDS011;1254;49.144;8.212;2022-09-30T05:20:15;5.38;;;4.97;;
2486;SDS011;1254;49.144;8.212;2022-09-30T05:22:45;5.18;;;4.78;;
2486;SDS011;1254;49.144;8.212;2022-09-30T05:25:13;9.45;;;4.53;;
2486;SDS011;1254;49.144;8.212;2022-09-30T05:27:41;5.97;;;4.95;;
2486;SDS011;1254;49.144;8.212;2022-09-30T05:30:09;8.77;;;7.90;;
2486;SDS011;1254;49.144;8.212;2022-09-30T05:32:39;8.10;;;6.28;;
2486;SDS011;1254;49.144;8.212;2022-09-30T05:35:07;7.47;;;6.60;;
2486;SDS011;1254;49.144;8.212;2022-09-30T05:37:37;8.07;;;6.47;;
2486;SDS011;1254;49.144;8.212;2022-09-30T05:40:05;10.30;;;5.70;;
2486;SDS011;1254;49.144;8.212;2022-09-30T05:42:35;6.40;;;5.90;;
2486;SDS011;1254;49.144;8.212;2022-09-30T05:45:03;8.52;;;7.72;;
2486;SDS011;1254;49.144;8.212;2022-09-30T05:47:32;9.07;;;6.80;;
2486;SDS011;1254;49.144;8.212;2022-09-30T05:50:02;10.98;;;5.90;;
2486;SDS011;1254;49.144;8.212;2022-09-30T05:52:31;6.65;;;6.05;;
2486;SDS011;1254;49.144;8.212;2022-09-30T05:54:59;7.20;;;5.35;;
2486;SDS011;1254;49.144;8.212;2022-09-30T05:57:27;6.47;;;5.88;;
2486;SDS011;1254;49.144;8.212;2022-09-30T05:59:55;8.05;;;7.22;;
2486;SDS011;1254;49.144;8.212;2022-09-30T06:02:23;11.90;;;6.03;;
2486;SDS011;1254;49.144;8.212;2022-09-30T06:04:51;6.57;;;5.30;;
2486;SDS011;1254;49.144;8.212;2022-09-30T06:07:21;8.75;;;6.97;;
2486;SDS011;1254;49.144;8.212;2022-09-30T06:09:49;6.50;;;5.90;;
2486;SDS011;1254;49.144;8.212;2022-09-30T06:12:16;11.07;;;6.70;;
2486;SDS011;1254;49.144;8.212;2022-09-30T06:14:44;5.65;;;5.15;;
2486;SDS011;1254;49.144;8.212;2022-09-30T06:17:12;6.43;;;5.40;;
2486;SDS011;1254;49.144;8.212;2022-09-30T06:19:43;9.48;;;5.20;;
2486;SDS011;1254;49.144;8.212;2022-09-30T06:22:11;5.45;;;4.95;;
2486;SDS011;1254;49.144;8.212;2022-09-30T06:24:40;7.18;;;5.90;;
2486;SDS011;1254;49.144;8.212;2022-09-30T06:27:08;6.85;;;6.00;;
2486;SDS011;1254;49.144;8.212;2022-09-30T06:29:37;17.30;;;7.95;;
2486;SDS011;1254;49.144;8.212;2022-09-30T06:32:05;14.63;;;7.95;;
2486;SDS011;1254;49.144;8.212;2022-09-30T06:34:43;12.80;;;8.10;;
2486;SDS011;1254;49.144;8.212;2022-09-30T06:37:12;11.93;;;8.35;;
2486;SDS011;1254;49.144;8.212;2022-09-30T06:39:42;10.90;;;7.05;;
2486;SDS011;1254;49.144;8.212;2022-09-30T06:42:10;11.63;;;6.47;;
2486;SDS011;1254;49.144;8.212;2022-09-30T06:44:38;7.00;;;6.05;;
2486;SDS011;1254;49.144;8.212;2022-09-30T06:47:06;6.75;;;5.47;;
2486;SDS011;1254;49.144;8.212;2022-09-30T06:49:34;9.32;;;5.40;;
2486;SDS011;1254;49.144;8.212;2022-09-30T06:52:02;5.47;;;4.97;;
2486;SDS011;1254;49.144;8.212;2022-09-30T06:54:30;8.02;;;5.43;;
2486;SDS011;1254;49.144;8.212;2022-09-30T06:57:02;9.32;;;5.50;;
2486;SDS011;1254;49.144;8.212;2022-09-30T06:59:30;6.05;;;5.45;;
2486;SDS011;1254;49.144;8.212;2022-09-30T07:01:58;5.97;;;5.38;;
2486;SDS011;1254;49.144;8.212;2022-09-30T07:04:26;5.03;;;4.53;;
2486;SDS011;1254;49.144;8.212;2022-09-30T07:06:54;7.15;;;4.82;;
2486;SDS011;1254;49.144;8.212;2022-09-30T07:09:22;6.80;;;5.00;;
2486;SDS011;1254;49.144;8.212;2022-09-30T07:11:50;7.55;;;5.13;;
2486;SDS011;1254;49.144;8.212;2022-09-30T07:14:20;5.13;;;4.57;;
2486;SDS011;1254;49.144;8.212;2022-09-30T07:16:49;8.60;;;5.60;;
2486;SDS011;1254;49.144;8.212;2022-09-30T07:19:18;7.35;;;5.63;;
2486;SDS011;1254;49.144;8.212;2022-09-30T07:21:48;7.63;;;5.20;;
2486;SDS011;1254;49.144;8.212;2022-09-30T07:24:16;6.95;;;5.10;;
2486;SDS011;1254;49.144;8.212;2022-09-30T07:26:45;5.88;;;5.20;;
2486;SDS011;1254;49.144;8.212;2022-09-30T07:29:13;7.60;;;5.38;;
2486;SDS011;1254;49.144;8.212;2022-09-30T07:31:42;6.35;;;5.75;;
2486;SDS011;1254;49.144;8.212;2022-09-30T07:34:11;5.13;;;4.68;;
2486;SDS011;1254;49.144;8.212;2022-09-30T07:36:39;6.03;;;5.43;;
2486;SDS011;1254;49.144;8.212;2022-09-30T07:39:08;6.30;;;5.70;;
2486;SDS011;1254;49.144;8.212;2022-09-30T07:41:37;6.13;;;5.18;;
2486;SDS011;1254;49.144;8.212;2022-09-30T07:44:07;7.97;;;5.95;;
2486;SDS011;1254;49.144;8.212;2022-09-30T07:46:38;7.15;;;4.95;;
2486;SDS011;1254;49.144;8.212;2022-09-30T07:49:09;8.57;;;5.60;;
2486;SDS011;1254;49.144;8.212;2022-09-30T07:51:41;6.57;;;5.15;;
2486;SDS011;1254;49.144;8.212;2022-09-30T07:54:11;6.22;;;3.92;;
2486;SDS011;1254;49.144;8.212;2022-09-30T07:56:40;4.70;;;4.30;;
2486;SDS011;1254;49.144;8.212;2022-09-30T07:59:10;5.90;;;4.40;;
2486;SDS011;1254;49.144;8.212;2022-09-30T08:01:38;8.30;;;4.82;;
2486;SDS011;1254;49.144;8.212;2022-09-30T08:04:09;4.85;;;4.35;;
2486;SDS011;1254;49.144;8.212;2022-09-30T08:06:39;7.57;;;5.32;;
2486;SDS011;1254;49.144;8.212;2022-09-30T08:09:08;5.57;;;4.70;;
2486;SDS011;1254;49.144;8.212;2022-09-30T08:11:36;6.20;;;5.57;;
2486;SDS011;1254;49.144;8.212;2022-09-30T08:14:06;5.60;;;5.10;;
2486;SDS011;1254;49.144;8.212;2022-09-30T08:16:33;6.25;;;5.65;;
2486;SDS011;1254;49.144;8.212;2022-09-30T08:19:01;8.13;;;5.10;;
2486;SDS011;1254;49.144;8.212;2022-09-30T08:21:31;10.93;;;5.07;;
2486;SDS011;1254;49.144;8.212;2022-09-30T08:23:59;5.50;;;5.00;;
2486;SDS011;1254;49.144;8.212;2022-09-30T08:26:30;9.32;;;5.18;;
2486;SDS011;1254;49.144;8.212;2022-09-30T08:28:57;6.95;;;5.70;;
2486;SDS011;1254;49.144;8.212;2022-09-30T08:31:26;7.28;;;5.38;;
2486;SDS011;1254;49.144;8.212;2022-09-30T08:33:54;8.38;;;6.47;;
2486;SDS011;1254;49.144;8.212;2022-09-30T08:36:23;8.68;;;6.10;;
2486;SDS011;1254;49.144;8.212;2022-09-30T08:38:53;9.57;;;6.03;;
2486;SDS011;1254;49.144;8.212;2022-09-30T08:41:42;6.15;;;5.47;;
2486;SDS011;1254;49.144;8.212;2022-09-30T08:44:26;6.25;;;5.75;;
2486;SDS011;1254;49.144;8.212;2022-09-30T08:47:09;5.80;;;5.30;;
2486;SDS011;1254;49.144;8.212;2022-09-30T08:49:57;6.53;;;6.03;;
2486;SDS011;1254;49.144;8.212;2022-09-30T08:52:35;6.95;;;5.22;;
2486;SDS011;1254;49.144;8.212;2022-09-30T08:55:07;7.07;;;5.87;;
2486;SDS011;1254;49.144;8.212;2022-09-30T08:57:42;6.80;;;5.93;;
2486;SDS011;1254;49.144;8.212;2022-09-30T09:00:11;9.07;;;6.72;;
2486;SDS011;1254;49.144;8.212;2022-09-30T09:02:42;7.87;;;7.00;;
2486;SDS011;1254;49.144;8.212;2022-09-30T09:05:15;13.13;;;7.03;;
2486;SDS011;1254;49.144;8.212;2022-09-30T09:07:51;7.45;;;6.75;;
2486;SDS011;1254;49.144;8.212;2022-09-30T09:10:31;10.93;;;6.87;;
2486;SDS011;1254;49.144;8.212;2022-09-30T09:13:08;12.38;;;7.32;;
2486;SDS011;1254;49.144;8.212;2022-09-30T09:15:50;9.20;;;8.17;;
2486;SDS011;1254;49.144;8.212;2022-09-30T09:18:38;9.65;;;6.82;;
2486;SDS011;1254;49.144;8.212;2022-09-30T09:21:21;9.93;;;7.70;;
2486;SDS011;1254;49.144;8.212;2022-09-30T09:23:54;9.50;;;8.50;;
2486;SDS011;1254;49.144;8.212;2022-09-30T09:26:28;8.13;;;7.32;;
2486;SDS011;1254;49.144;8.212;2022-09-30T09:29:05;8.17;;;7.37;;
2486;SDS011;1254;49.144;8.212;2022-09-30T09:31:41;10.82;;;9.02;;
2486;SDS011;1254;49.144;8.212;2022-09-30T09:34:10;9.10;;;8.30;;
2486;SDS011;1254;49.144;8.212;2022-09-30T09:36:43;9.90;;;8.90;;
2486;SDS011;1254;49.144;8.212;2022-09-30T09:39:21;13.60;;;10.10;;
2486;SDS011;1254;49.144;8.212;2022-09-30T09:42:14;13.40;;;9.48;;
2486;SDS011;1254;49.144;8.212;2022-09-30T09:44:58;15.35;;;9.85;;
2486;SDS011;1254;49.144;8.212;2022-09-30T09:47:29;11.52;;;9.77;;
2486;SDS011;1254;49.144;8.212;2022-09-30T09:49:59;11.77;;;9.10;;
2486;SDS011;1254;49.144;8.212;2022-09-30T09:55:26;10.73;;;9.73;;
2486;SDS011;1254;49.144;8.212;2022-09-30T09:58:05;14.80;;;10.20;;
2486;SDS011;1254;49.144;8.212;2022-09-30T10:00:34;17.23;;;10.05;;
2486;SDS011;1254;49.144;8.212;2022-09-30T10:03:20;10.00;;;8.43;;
2486;SDS011;1254;49.144;8.212;2022-09-30T10:05:57;12.48;;;9.10;;
2486;SDS011;1254;49.144;8.212;2022-09-30T10:08:29;12.27;;;10.88;;
2486;SDS011;1254;49.144;8.212;2022-09-30T10:10:59;12.85;;;10.27;;
2486;SDS011;1254;49.144;8.212;2022-09-30T10:13:31;14.33;;;12.87;;
2486;SDS011;1254;49.144;8.212;2022-09-30T10:16:18;13.50;;;10.63;;
2486;SDS011;1254;49.144;8.212;2022-09-30T10:18:54;11.70;;;10.27;;
2486;SDS011;1254;49.144;8.212;2022-09-30T10:21:42;11.80;;;10.40;;
2486;SDS011;1254;49.144;8.212;2022-09-30T10:24:17;14.00;;;10.70;;
2486;SDS011;1254;49.144;8.212;2022-09-30T10:26:53;12.53;;;11.17;;
2486;SDS011;1254;49.144;8.212;2022-09-30T10:29:26;11.70;;;10.60;;
2486;SDS011;1254;49.144;8.212;2022-09-30T10:31:56;16.30;;;11.00;;
2486;SDS011;1254;49.144;8.212;2022-09-30T10:34:26;11.73;;;10.53;;
2486;SDS011;1254;49.144;8.212;2022-09-30T10:36:57;10.20;;;9.20;;
2486;SDS011;1254;49.144;8.212;2022-09-30T10:39:28;11.73;;;10.53;;
2486;SDS011;1254;49.144;8.212;2022-09-30T10:42:00;10.63;;;9.63;;
2486;SDS011;1254;49.144;8.212;2022-09-30T10:44:34;12.33;;;11.03;;
2486;SDS011;1254;49.144;8.212;2022-09-30T10:47:08;15.98;;;13.05;;
2486;SDS011;1254;49.144;8.212;2022-09-30T10:49:42;11.67;;;9.67;;
2486;SDS011;1254;49.144;8.212;2022-09-30T10:52:15;11.17;;;10.03;;
2486;SDS011;1254;49.144;8.212;2022-09-30T10:54:47;12.53;;;9.30;;
2486;SDS011;1254;49.144;8.212;2022-09-30T10:57:19;11.13;;;9.37;;
2486;SDS011;1254;49.144;8.212;2022-09-30T10:59:52;11.47;;;9.90;;
2486;SDS011;1254;49.144;8.212;2022-09-30T11:02:28;10.90;;;9.00;;
2486;SDS011;1254;49.144;8.212;2022-09-30T11:05:03;11.10;;;8.87;;
2486;SDS011;1254;49.144;8.212;2022-09-30T11:07:40;10.87;;;9.23;;
2486;SDS011;1254;49.144;8.212;2022-09-30T11:10:13;11.77;;;10.57;;
2486;SDS011;1254;49.144;8.212;2022-09-30T11:12:53;11.00;;;10.00;;
2486;SDS011;1254;49.144;8.212;2022-09-30T11:15:29;10.67;;;9.57;;
2486;SDS011;1254;49.144;8.212;2022-09-30T11:18:06;12.30;;;9.17;;
2486;SDS011;1254;49.144;8.212;2022-09-30T11:21:03;9.60;;;8.70;;
2486;SDS011;1254;49.144;8.212;2022-09-30T11:23:39;12.80;;;10.80;;
2486;SDS011;1254;49.144;8.212;2022-09-30T11:26:14;10.20;;;9.07;;
2486;SDS011;1254;49.144;8.212;2022-09-30T11:28:57;9.07;;;8.20;;
2486;SDS011;1254;49.144;8.212;2022-09-30T11:31:40;8.43;;;7.90;;
2486;SDS011;1254;49.144;8.212;2022-09-30T11:34:18;9.50;;;8.50;;
2486;SDS011;1254;49.144;8.212;2022-09-30T11:36:57;8.37;;;7.67;;
2486;SDS011;1254;49.144;8.212;2022-09-30T11:39:38;8.10;;;7.50;;
2486;SDS011;1254;49.144;8.212;2022-09-30T11:42:27;9.07;;;8.27;;
2486;SDS011;1254;49.144;8.212;2022-09-30T11:45:06;8.70;;;7.93;;
2486;SDS011;1254;49.144;8.212;2022-09-30T11:47:50;8.93;;;8.00;;
2486;SDS011;1254;49.144;8.212;2022-09-30T11:50:34;8.93;;;8.13;;
2486;SDS011;1254;49.144;8.212;2022-09-30T11:53:14;10.30;;;9.07;;
2486;SDS011;1254;49.144;8.212;2022-09-30T11:55:56;10.80;;;9.80;;
2486;SDS011;1254;49.144;8.212;2022-09-30T11:58:49;9.30;;;8.60;;
2486;SDS011;1254;49.144;8.212;2022-09-30T12:01:21;10.53;;;9.73;;
2486;SDS011;1254;49.144;8.212;2022-09-30T12:04:02;10.70;;;9.50;;
2486;SDS011;1254;49.144;8.212;2022-09-30T12:06:33;9.23;;;8.43;;
2486;SDS011;1254;49.144;8.212;2022-09-30T12:09:08;9.13;;;8.43;;
2486;SDS011;1254;49.144;8.212;2022-09-30T12:11:43;10.93;;;8.13;;
2486;SDS011;1254;49.144;8.212;2022-09-30T12:14:18;7.90;;;7.40;;
2486;SDS011;1254;49.144;8.212;2022-09-30T12:16:50;7.50;;;7.00;;
2486;SDS011;1254;49.144;8.212;2022-09-30T12:19:22;7.40;;;6.80;;
2486;SDS011;1254;49.144;8.212;2022-09-30T12:21:56;8.30;;;7.80;;
2486;SDS011;1254;49.144;8.212;2022-09-30T12:24:31;6.97;;;6.47;;
2486;SDS011;1254;49.144;8.212;2022-09-30T12:27:03;6.83;;;6.23;;
2486;SDS011;1254;49.144;8.212;2022-09-30T12:29:33;9.67;;;6.40;;
2486;SDS011;1254;49.144;8.212;2022-09-30T12:32:27;11.70;;;5.60;;
2486;SDS011;1254;49.144;8.212;2022-09-30T12:35:33;6.37;;;5.87;;
2486;SDS011;1254;49.144;8.212;2022-09-30T12:38:15;6.30;;;6.00;;
2486;SDS011;1254;49.144;8.212;2022-09-30T12:40:57;8.13;;;6.00;;
2486;SDS011;1254;49.144;8.212;2022-09-30T12:46:53;6.10;;;5.70;;
2486;SDS011;1254;49.144;8.212;2022-09-30T12:49:35;6.77;;;6.13;;
2486;SDS011;1254;49.144;8.212;2022-09-30T12:52:10;6.77;;;6.10;;
2486;SDS011;1254;49.144;8.212;2022-09-30T12:54:42;6.20;;;5.80;;
2486;SDS011;1254;49.144;8.212;2022-09-30T12:57:17;6.77;;;5.97;;
2486;SDS011;1254;49.144;8.212;2022-09-30T12:59:50;6.70;;;6.20;;
2486;SDS011;1254;49.144;8.212;2022-09-30T13:02:25;7.33;;;6.47;;
2486;SDS011;1254;49.144;8.212;2022-09-30T13:05:30;6.80;;;5.70;;
2486;SDS011;1254;49.144;8.212;2022-09-30T13:08:35;5.50;;;5.10;;
2486;SDS011;1254;49.144;8.212;2022-09-30T13:11:20;6.37;;;5.70;;
2486;SDS011;1254;49.144;8.212;2022-09-30T13:14:01;5.80;;;5.50;;
2486;SDS011;1254;49.144;8.212;2022-09-30T13:19:32;5.23;;;4.90;;
2486;SDS011;1254;49.144;8.212;2022-09-30T13:25:20;4.93;;;4.63;;
2486;SDS011;1254;49.144;8.212;2022-09-30T13:27:48;8.10;;;4.63;;
2486;SDS011;1254;49.144;8.212;2022-09-30T13:33:28;4.40;;;4.00;;
2486;SDS011;1254;49.144;8.212;2022-09-30T13:36:13;4.67;;;4.37;;
2486;SDS011;1254;49.144;8.212;2022-09-30T13:38:45;5.47;;;4.40;;
2486;SDS011;1254;49.144;8.212;2022-09-30T13:41:33;4.93;;;4.53;;
2486;SDS011;1254;49.144;8.212;2022-09-30T13:44:05;4.97;;;4.60;;
2486;SDS011;1254;49.144;8.212;2022-09-30T13:46:42;4.77;;;4.40;;
2486;SDS011;1254;49.144;8.212;2022-09-30T13:49:15;5.07;;;4.87;;
2486;SDS011;1254;49.144;8.212;2022-09-30T13:51:48;5.40;;;4.90;;
2486;SDS011;1254;49.144;8.212;2022-09-30T13:54:20;8.60;;;5.37;;
2486;SDS011;1254;49.144;8.212;2022-09-30T13:56:54;9.23;;;5.77;;
2486;SDS011;1254;49.144;8.212;2022-09-30T13:59:29;5.90;;;4.87;;
2486;SDS011;1254;49.144;8.212;2022-09-30T14:02:28;4.37;;;4.07;;
2486;SDS011;1254;49.144;8.212;2022-09-30T14:05:22;7.73;;;4.40;;
2486;SDS011;1254;49.144;8.212;2022-09-30T14:11:14;4.47;;;4.17;;
2486;SDS011;1254;49.144;8.212;2022-09-30T14:14:07;8.90;;;3.80;;
2486;SDS011;1254;49.144;8.212;2022-09-30T14:17:00;4.30;;;4.00;;
2486;SDS011;1254;49.144;8.212;2022-09-30T14:19:55;4.40;;;4.10;;
2486;SDS011;1254;49.144;8.212;2022-09-30T14:22:38;4.23;;;3.80;;
2486;SDS011;1254;49.144;8.212;2022-09-30T14:25:10;10.03;;;4.60;;
2486;SDS011;1254;49.144;8.212;2022-09-30T14:27:44;4.80;;;4.27;;
2486;SDS011;1254;49.144;8.212;2022-09-30T14:30:23;4.47;;;4.17;;
2486;SDS011;1254;49.144;8.212;2022-09-30T14:32:52;5.10;;;4.70;;
2486;SDS011;1254;49.144;8.212;2022-09-30T14:35:24;5.00;;;4.50;;
2486;SDS011;1254;49.144;8.212;2022-09-30T14:37:55;4.30;;;4.00;;
2486;SDS011;1254;49.144;8.212;2022-09-30T14:40:27;6.27;;;4.97;;
2486;SDS011;1254;49.144;8.212;2022-09-30T14:42:57;5.73;;;4.93;;
2486;SDS011;1254;49.144;8.212;2022-09-30T14:45:30;14.47;;;13.10;;
2486;SDS011;1254;49.144;8.212;2022-09-30T14:48:01;13.07;;;11.87;;
2486;SDS011;1254;49.144;8.212;2022-09-30T14:50:34;12.60;;;6.33;;
2486;SDS011;1254;49.144;8.212;2022-09-30T14:53:21;9.07;;;5.10;;
2486;SDS011;1254;49.144;8.212;2022-09-30T14:55:55;3.93;;;3.63;;
2486;SDS011;1254;49.144;8.212;2022-09-30T14:58:24;5.40;;;4.40;;
2486;SDS011;1254;49.144;8.212;2022-09-30T15:00:58;5.53;;;4.70;;
2486;SDS011;1254;49.144;8.212;2022-09-30T15:03:31;4.37;;;4.07;;
2486;SDS011;1254;49.144;8.212;2022-09-30T15:06:01;5.03;;;4.73;;
2486;SDS011;1254;49.144;8.212;2022-09-30T15:08:29;5.63;;;4.53;;
2486;SDS011;1254;49.144;8.212;2022-09-30T15:10:58;6.13;;;3.87;;
2486;SDS011;1254;49.144;8.212;2022-09-30T15:13:26;8.23;;;4.60;;
2486;SDS011;1254;49.144;8.212;2022-09-30T15:15:58;7.27;;;4.70;;
2486;SDS011;1254;49.144;8.212;2022-09-30T15:18:28;4.27;;;4.07;;
2486;SDS011;1254;49.144;8.212;2022-09-30T15:20:58;7.37;;;4.90;;
2486;SDS011;1254;49.144;8.212;2022-09-30T15:23:32;6.07;;;5.00;;
2486;SDS011;1254;49.144;8.212;2022-09-30T15:26:02;7.97;;;7.00;;
2486;SDS011;1254;49.144;8.212;2022-09-30T15:28:32;6.40;;;4.90;;
2486;SDS011;1254;49.144;8.212;2022-09-30T15:31:03;9.00;;;4.83;;
2486;SDS011;1254;49.144;8.212;2022-09-30T15:33:33;7.20;;;6.53;;
2486;SDS011;1254;49.144;8.212;2022-09-30T15:36:03;5.30;;;4.93;;
2486;SDS011;1254;49.144;8.212;2022-09-30T15:38:34;7.63;;;5.30;;
2486;SDS011;1254;49.144;8.212;2022-09-30T15:41:05;5.80;;;4.90;;
2486;SDS011;1254;49.144;8.212;2022-09-30T15:43:35;5.50;;;4.90;;
2486;SDS011;1254;49.144;8.212;2022-09-30T15:46:17;6.30;;;5.70;;
2486;SDS011;1254;49.144;8.212;2022-09-30T15:48:52;5.90;;;4.27;;
2486;SDS011;1254;49.144;8.212;2022-09-30T15:51:23;5.17;;;3.90;;
2486;SDS011;1254;49.144;8.212;2022-09-30T15:54:28;4.20;;;3.80;;
2486;SDS011;1254;49.144;8.212;2022-09-30T15:57:02;5.73;;;3.83;;
2486;SDS011;1254;49.144;8.212;2022-09-30T16:00:05;3.60;;;3.40;;
2486;SDS011;1254;49.144;8.212;2022-09-30T16:02:56;3.33;;;3.13;;
2486;SDS011;1254;49.144;8.212;2022-09-30T16:05:48;4.07;;;3.67;;
2486;SDS011;1254;49.144;8.212;2022-09-30T16:08:19;4.30;;;3.67;;
2486;SDS011;1254;49.144;8.212;2022-09-30T16:10:58;4.70;;;3.63;;
2486;SDS011;1254;49.144;8.212;2022-09-30T16:13:27;4.63;;;3.20;;
2486;SDS011;1254;49.144;8.212;2022-09-30T16:15:56;4.00;;;3.20;;
2486;SDS011;1254;49.144;8.212;2022-09-30T16:18:29;3.97;;;3.67;;
2486;SDS011;1254;49.144;8.212;2022-09-30T16:20:58;6.23;;;3.27;;